Madison, Kansas
Current Conditions -  °F | °C
As of 11:53 AM on Thursday 30 Oct 2014 (Local Time) from KEMP Reporting Station
Clear Clear  
Wind Chill: 67°   Ceiling: Unl
Heat Index: 67°   Visibility: 10mi
Dew Point: 38°   Wind: 21mph
Humidity: 34%   Direction: 350°N
Pressure: 30.09"   Gusts: 30mph
Location:  38.14°N, 96.14°W
Report Text: KEMP 301653Z AUTO 35018G26KT 10SM CLR 19/03 A3009 RMK AO2 PK WND 35027/1600 SLP188 T01940033
Loading
Personal Weather Stations






























Interactive Weather Map
Tropical Storm Tracking
New forecast layout! Learn more

10-Day Weather Forecast

Advertisements
Track Severe Weather on mobile